createdAt,value
2019-04-07T00:04:02.211Z,61.48
2019-04-07T00:09:07.934Z,61.17
2019-04-07T00:14:12.631Z,61.36
2019-04-07T00:19:17.237Z,61.55
2019-04-07T00:24:21.879Z,61.43
2019-04-07T00:29:26.501Z,61.43
2019-04-07T00:34:31.094Z,61.70
2019-04-07T00:39:35.521Z,61.70
2019-04-07T00:44:40.108Z,61.62
2019-04-07T00:49:44.385Z,61.72
2019-04-07T00:54:49.090Z,61.50
2019-04-07T00:59:54.056Z,61.50
2019-04-07T01:04:58.442Z,61.77
2019-04-07T01:10:03.598Z,61.63
2019-04-07T01:15:08.696Z,62.14
2019-04-07T01:20:13.100Z,62.14
2019-04-07T01:25:17.134Z,62.03
2019-04-07T01:30:21.453Z,62.03
2019-04-07T01:35:25.663Z,61.74
2019-04-07T01:40:29.903Z,61.73
2019-04-07T01:45:52.462Z,61.73
2019-04-07T01:51:14.533Z,62.08
2019-04-07T01:56:27.276Z,61.96
2019-04-07T02:01:43.911Z,61.88
2019-04-07T02:07:13.395Z,62.20
2019-04-07T02:12:40.154Z,62.19
2019-04-07T02:18:02.474Z,62.31
2019-04-07T02:23:15.336Z,62.36
2019-04-07T02:28:25.498Z,62.74
2019-04-07T02:33:47.176Z,62.74
2019-04-07T02:39:17.181Z,62.36
2019-04-07T02:44:46.979Z,62.48
2019-04-07T02:50:16.240Z,62.77
2019-04-07T02:55:30.062Z,62.61
2019-04-07T03:00:44.903Z,62.55
2019-04-07T03:05:59.717Z,62.60
2019-04-07T03:11:25.957Z,62.46
2019-04-07T03:16:44.830Z,62.66
2019-04-07T03:21:59.562Z,62.66
2019-04-07T03:27:22.632Z,62.65
2019-04-07T03:32:46.786Z,62.83
2019-04-07T03:38:12.651Z,63.15
2019-04-07T03:43:23.973Z,62.83
2019-04-07T03:48:38.437Z,62.83
2019-04-07T03:54:10.679Z,62.58
2019-04-07T03:59:40.613Z,63.14
2019-04-07T04:04:50.148Z,62.97
2019-04-07T04:10:17.347Z,62.74
2019-04-07T04:15:25.185Z,62.74
2019-04-07T04:20:30.217Z,62.99
2019-04-07T04:25:34.566Z,63.38
2019-04-07T04:30:38.944Z,63.09
2019-04-07T04:35:44.163Z,63.03
2019-04-07T04:40:49.304Z,63.03
2019-04-07T04:45:53.783Z,63.11
2019-04-07T04:50:58.645Z,63.47
2019-04-07T04:56:03.023Z,63.05
2019-04-07T05:01:07.243Z,63.05
2019-04-07T05:06:11.892Z,63.46
2019-04-07T05:11:16.092Z,63.36
2019-04-07T05:16:21.354Z,63.69
2019-04-07T05:21:26.162Z,63.69
2019-04-07T05:26:30.330Z,63.58
2019-04-07T05:31:34.775Z,63.66
2019-04-07T05:36:38.987Z,64.26
2019-04-07T05:41:43.004Z,63.87
2019-04-07T05:46:49.466Z,63.72
2019-04-07T05:51:53.395Z,64.38
2019-04-07T05:57:00.394Z,64.35
2019-04-07T06:02:03.909Z,63.91
2019-04-07T06:07:09.018Z,63.97
2019-04-07T06:12:13.312Z,64.25
2019-04-07T06:17:17.388Z,64.22
2019-04-07T06:22:22.011Z,64.79
2019-04-07T06:27:29.467Z,64.82
2019-04-07T06:32:35.164Z,64.82
2019-04-07T06:37:38.665Z,65.05
2019-04-07T06:42:45.676Z,65.02
2019-04-07T06:47:53.520Z,64.60
2019-04-07T06:53:01.192Z,64.60
2019-04-07T06:58:25.694Z,65.17
2019-04-07T07:04:00.838Z,59.61
2019-04-07T07:09:29.093Z,59.61
2019-04-07T07:14:44.922Z,60.10
2019-04-07T07:19:59.097Z,58.91
2019-04-07T07:25:03.117Z,59.89
2019-04-07T07:30:07.782Z,59.89
2019-04-07T07:35:14.474Z,60.50
2019-04-07T07:40:18.455Z,60.50
2019-04-07T07:45:22.923Z,60.69
2019-04-07T07:50:28.352Z,61.11
2019-04-07T07:55:36.512Z,61.06
2019-04-07T08:00:41.563Z,61.51
2019-04-07T08:05:44.534Z,62.04
2019-04-07T08:10:48.923Z,61.74
2019-04-07T08:15:54.623Z,61.23
2019-04-07T08:20:58.995Z,61.23
2019-04-07T08:26:02.985Z,61.65
2019-04-07T08:31:07.154Z,61.95
2019-04-07T08:36:12.954Z,62.01
2019-04-07T08:41:16.937Z,60.96
2019-04-07T08:46:21.034Z,61.17
2019-04-07T08:51:27.480Z,61.37
2019-04-07T08:56:30.998Z,61.12
2019-04-07T09:01:35.026Z,61.35
2019-04-07T09:06:39.608Z,61.35
2019-04-07T09:11:43.975Z,60.82
2019-04-07T09:17:10.556Z,60.58
2019-04-07T09:22:51.645Z,60.23
2019-04-07T09:28:10.089Z,60.23
2019-04-07T09:33:30.925Z,59.70
2019-04-07T09:38:52.404Z,59.97
2019-04-07T09:44:24.321Z,60.11
2019-04-07T09:49:55.736Z,60.05
2019-04-07T09:55:09.703Z,60.05
2019-04-07T10:00:37.069Z,60.76
2019-04-07T10:06:00.792Z,60.76
2019-04-07T10:11:42.098Z,60.42
2019-04-07T10:17:05.316Z,60.45
2019-04-07T10:22:34.848Z,60.45
2019-04-07T10:28:00.972Z,60.51
2019-04-07T10:33:27.213Z,61.01
2019-04-07T10:38:42.844Z,61.31
2019-04-07T10:44:07.405Z,61.14
2019-04-07T10:49:22.684Z,61.39
2019-04-07T10:54:41.518Z,63.23
2019-04-07T11:00:01.303Z,63.21
2019-04-07T11:05:32.692Z,63.21
2019-04-07T11:10:55.853Z,62.29
2019-04-07T11:16:10.816Z,62.29
2019-04-07T11:21:53.016Z,62.95
2019-04-07T11:27:14.936Z,62.17
2019-04-07T11:32:28.888Z,62.17
2019-04-07T11:37:45.940Z,61.97
2019-04-07T11:43:08.759Z,61.97
2019-04-07T11:48:38.337Z,57.28
2019-04-07T11:54:18.104Z,54.98
2019-04-07T11:59:41.322Z,54.98
2019-04-07T12:05:05.432Z,55.00
2019-04-07T12:10:31.850Z,55.00
2019-04-07T12:16:01.993Z,55.17
2019-04-07T12:21:20.100Z,55.17
2019-04-07T12:26:39.484Z,55.14
2019-04-07T12:31:57.789Z,54.95
2019-04-07T12:37:10.389Z,54.95
2019-04-07T12:42:38.543Z,56.18
2019-04-07T12:48:04.677Z,56.37
2019-04-07T12:53:21.892Z,56.84
2019-04-07T12:58:34.484Z,56.84
2019-04-07T13:03:57.475Z,57.79
2019-04-07T13:09:29.731Z,57.66
2019-04-07T13:14:59.046Z,57.66
2019-04-07T13:20:22.188Z,58.45
2019-04-07T13:25:34.880Z,58.91
2019-04-07T13:30:54.808Z,58.64
2019-04-07T13:36:21.429Z,59.41
2019-04-07T13:41:44.226Z,59.04
2019-04-07T13:46:50.635Z,59.04
2019-04-07T13:52:11.776Z,58.64
2019-04-07T13:57:36.007Z,58.74
2019-04-07T14:02:57.141Z,58.73
2019-04-07T14:08:10.264Z,58.73
2019-04-07T14:13:27.865Z,57.91
2019-04-07T14:18:54.586Z,58.00
2019-04-07T14:24:18.621Z,57.79
2019-04-07T14:29:41.626Z,57.73
2019-04-07T14:35:07.476Z,57.03
2019-04-07T14:40:38.783Z,57.02
2019-04-07T14:45:52.628Z,56.92
2019-04-07T14:51:28.434Z,56.62
2019-04-07T14:56:54.341Z,57.11
2019-04-07T15:02:00.845Z,56.56
2019-04-07T15:07:21.580Z,56.82
2019-04-07T15:12:31.423Z,56.51
2019-04-07T15:17:36.962Z,56.94
2019-04-07T15:22:43.979Z,56.49
2019-04-07T15:27:47.729Z,55.95
2019-04-07T15:32:51.785Z,56.40
2019-04-07T15:37:55.933Z,56.51
2019-04-07T15:43:03.863Z,55.59
2019-04-07T15:48:06.050Z,55.51
2019-04-07T15:53:13.454Z,55.51
2019-04-07T15:58:16.955Z,55.35
2019-04-07T16:03:21.249Z,55.32
2019-04-07T16:08:27.245Z,54.70
2019-04-07T16:13:31.731Z,54.74
2019-04-07T16:18:39.482Z,54.74
2019-04-07T16:23:42.925Z,55.06
2019-04-07T16:28:47.079Z,54.59
2019-04-07T16:33:51.856Z,54.59
2019-04-07T16:38:56.508Z,54.23
2019-04-07T16:44:04.781Z,54.65
2019-04-07T16:49:11.044Z,54.51
2019-04-07T16:54:14.370Z,54.31
2019-04-07T16:59:19.423Z,54.79
2019-04-07T17:04:24.548Z,54.63
2019-04-07T17:09:29.342Z,55.38
2019-04-07T17:14:35.824Z,55.19
2019-04-07T17:19:40.430Z,56.04
2019-04-07T17:24:45.322Z,56.17
2019-04-07T17:29:53.552Z,56.17
2019-04-07T17:34:56.149Z,56.13
2019-04-07T17:40:12.455Z,56.95
2019-04-07T17:45:30.816Z,56.95
2019-04-07T17:50:53.380Z,57.02
2019-04-07T17:56:20.447Z,57.02
2019-04-07T18:01:41.032Z,57.19
2019-04-07T18:07:20.132Z,57.59
2019-04-07T18:12:49.213Z,57.59
2019-04-07T18:18:08.372Z,57.39
2019-04-07T18:23:37.133Z,57.86
2019-04-07T18:28:59.717Z,58.00
2019-04-07T18:34:23.956Z,58.33
2019-04-07T18:39:44.411Z,58.33
2019-04-07T18:45:23.916Z,58.28
2019-04-07T18:50:39.662Z,58.48
2019-04-07T18:56:01.475Z,58.46
2019-04-07T19:01:17.057Z,58.35
2019-04-07T19:06:26.469Z,58.54
2019-04-07T19:12:05.077Z,58.54
2019-04-07T19:17:23.423Z,58.89
2019-04-07T19:22:58.193Z,58.89
2019-04-07T19:28:21.413Z,59.06
2019-04-07T19:33:47.485Z,59.06
2019-04-07T19:39:14.683Z,58.88
2019-04-07T19:44:46.275Z,59.02
2019-04-07T19:50:11.146Z,58.97
2019-04-07T19:55:32.766Z,59.36
2019-04-07T20:00:55.326Z,59.42
2019-04-07T20:06:16.998Z,59.52
2019-04-07T20:11:43.732Z,59.52
2019-04-07T20:17:06.505Z,59.47
2019-04-07T20:22:30.691Z,59.71
2019-04-07T20:28:08.964Z,59.60
2019-04-07T20:33:39.384Z,59.80
2019-04-07T20:38:48.557Z,59.69
2019-04-07T20:44:21.075Z,59.69
2019-04-07T20:49:50.643Z,60.06
2019-04-07T20:55:08.087Z,60.00
2019-04-07T21:00:56.030Z,60.00
2019-04-07T21:06:08.489Z,60.36
2019-04-07T21:11:29.045Z,60.12
2019-04-07T21:17:02.409Z,60.16
2019-04-07T21:22:16.887Z,60.38
2019-04-07T21:27:48.933Z,60.38
2019-04-07T21:33:11.107Z,60.77
2019-04-07T21:38:43.384Z,60.77
2019-04-07T21:44:07.160Z,60.49
2019-04-07T21:49:26.368Z,60.55
2019-04-07T21:54:40.888Z,60.63
2019-04-07T22:00:01.325Z,60.54
2019-04-07T22:05:27.121Z,60.54
2019-04-07T22:10:31.896Z,60.82
2019-04-07T22:15:45.773Z,61.25
2019-04-07T22:20:43.217Z,60.92
2019-04-07T22:25:52.229Z,60.92
2019-04-07T22:30:57.269Z,61.12
2019-04-07T22:36:01.885Z,61.22
2019-04-07T22:41:07.394Z,61.23
2019-04-07T22:46:17.572Z,61.27
2019-04-07T22:51:18.807Z,61.30
2019-04-07T22:56:23.080Z,61.07
2019-04-07T23:01:27.332Z,61.07
2019-04-07T23:06:31.476Z,61.54
2019-04-07T23:11:35.720Z,61.50
2019-04-07T23:16:40.200Z,61.22
2019-04-07T23:21:44.404Z,61.45
2019-04-07T23:26:48.875Z,61.45
2019-04-07T23:31:53.507Z,61.33
2019-04-07T23:36:57.806Z,61.78
2019-04-07T23:42:02.795Z,61.78
2019-04-07T23:47:24.903Z,61.71
2019-04-07T23:52:29.359Z,61.89
2019-04-07T23:57:33.622Z,61.71
